Time;durP1;ratioP1;P1;durP2;ratioP2;P2;SDS_P1;SDS_P2;PMS_P1;PMS_P2;Temp;Humidity;BMP_temperature;BMP_pressure;BME280_temperature;BME280_humidity;BME280_pressure;Samples;Min_cycle;Max_cycle;Signal;HPM_P1;HPM_P2
2022/10/21 00:00:27;;;;;;;10.37;3.83;;;17.00;99.90;;;;;;5113623;28;20192;-83
2022/10/21 00:02:54;;;;;;;5.67;3.30;;;16.90;99.90;;;;;;5113216;28;20198;-84
2022/10/21 00:05:21;;;;;;;7.38;4.10;;;17.00;99.90;;;;;;5112959;28;20420;-84
2022/10/21 00:07:48;;;;;;;7.17;3.97;;;16.90;99.90;;;;;;5112975;28;20227;-83
2022/10/21 00:10:16;;;;;;;5.77;3.10;;;16.90;99.90;;;;;;5113162;28;20197;-85
2022/10/21 00:12:44;;;;;;;7.73;2.93;;;16.80;99.90;;;;;;5113050;28;20790;-84
2022/10/21 00:15:12;;;;;;;3.77;2.97;;;16.70;99.90;;;;;;5113264;28;20209;-83
2022/10/21 00:17:42;;;;;;;8.00;3.40;;;16.80;99.90;;;;;;5116776;28;20219;-84
2022/10/21 00:20:11;;;;;;;6.50;3.27;;;16.80;99.90;;;;;;5120944;27;20210;-84
2022/10/21 00:22:39;;;;;;;7.20;3.00;;;16.90;99.90;;;;;;5120701;28;20208;-84
2022/10/21 00:25:07;;;;;;;4.50;2.90;;;16.80;99.90;;;;;;5130480;27;20205;-84
2022/10/21 00:27:34;;;;;;;5.40;3.03;;;16.70;99.90;;;;;;5130915;28;20213;-84
2022/10/21 00:30:05;;;;;;;5.63;2.90;;;16.70;99.90;;;;;;5131089;28;20527;-84
2022/10/21 00:32:32;;;;;;;6.23;2.57;;;16.70;99.90;;;;;;5130512;28;20197;-84
2022/10/21 00:34:58;;;;;;;5.60;2.78;;;16.60;99.90;;;;;;5138422;27;20416;-84
2022/10/21 00:37:25;;;;;;;3.13;2.20;;;16.60;99.90;;;;;;5131868;28;20210;-84
2022/10/21 00:39:52;;;;;;;4.07;1.80;;;16.60;99.90;;;;;;5125937;28;20206;-84
2022/10/21 00:42:22;;;;;;;2.43;1.80;;;16.60;99.90;;;;;;5125695;28;20192;-84
2022/10/21 00:45:19;;;;;;;4.03;2.10;;;16.60;99.90;;;;;;5123127;28;20201;-84
2022/10/21 00:47:51;;;;;;;4.50;1.67;;;16.60;99.90;;;;;;5118993;28;20212;-84
2022/10/21 00:50:27;;;;;;;5.37;1.73;;;16.50;99.90;;;;;;5119746;28;20195;-83
2022/10/21 00:52:55;;;;;;;2.47;1.37;;;16.50;99.90;;;;;;5117502;28;20378;-83
2022/10/21 00:55:25;;;;;;;5.60;1.70;;;16.60;99.90;;;;;;5116408;27;20221;-83
2022/10/21 00:57:53;;;;;;;3.90;1.87;;;16.50;99.90;;;;;;5116397;28;20593;-83
2022/10/21 01:00:21;;;;;;;2.97;1.70;;;16.40;99.90;;;;;;5116474;28;20201;-84
2022/10/21 01:02:48;;;;;;;6.43;2.00;;;16.40;99.90;;;;;;5116203;28;20209;-84
2022/10/21 01:05:16;;;;;;;3.97;1.63;;;16.40;99.90;;;;;;5116464;28;20189;-84
2022/10/21 01:07:46;;;;;;;4.40;1.60;;;16.50;99.90;;;;;;5115668;28;20239;-83
2022/10/21 01:10:16;;;;;;;6.40;1.90;;;16.40;99.90;;;;;;5116237;28;20193;-84
2022/10/21 01:12:55;;;;;;;5.50;1.77;;;16.40;99.90;;;;;;5115935;28;20212;-84
2022/10/21 01:15:28;;;;;;;3.50;1.53;;;16.40;99.90;;;;;;5116169;28;20204;-83
2022/10/21 01:18:04;;;;;;;3.37;2.10;;;16.30;99.90;;;;;;5116351;28;20205;-84
2022/10/21 01:20:58;;;;;;;2.73;1.47;;;16.30;99.90;;;;;;5116117;28;20192;-84
2022/10/21 01:24:16;;;;;;;4.60;1.77;;;16.30;99.90;;;;;;5115673;28;20645;-84
2022/10/21 01:27:13;;;;;;;2.93;1.43;;;16.30;99.90;;;;;;5089728;28;20710;-84
2022/10/21 01:30:07;;;;;;;3.40;1.90;;;16.20;99.90;;;;;;5115333;28;20212;-83
2022/10/21 01:33:00;;;;;;;6.10;1.67;;;16.20;99.90;;;;;;5107593;28;20204;-84
2022/10/21 01:35:34;;;;;;;3.63;1.80;;;16.10;99.90;;;;;;5115512;28;20200;-83
2022/10/21 01:38:09;;;;;;;4.53;1.43;;;16.10;99.90;;;;;;5115464;28;20202;-83
2022/10/21 01:40:43;;;;;;;5.30;1.77;;;16.00;99.90;;;;;;5114623;27;20922;-84
2022/10/21 01:43:17;;;;;;;4.53;1.67;;;16.20;99.90;;;;;;5111338;28;20197;-84
2022/10/21 01:45:48;;;;;;;5.10;1.77;;;16.20;99.90;;;;;;5101721;28;20223;-83
2022/10/21 01:48:25;;;;;;;3.53;1.70;;;16.20;99.90;;;;;;5100701;28;20205;-84
2022/10/21 01:50:56;;;;;;;2.73;1.70;;;16.00;99.90;;;;;;5112107;28;20208;-83
2022/10/21 01:53:28;;;;;;;3.83;1.70;;;15.90;99.90;;;;;;5104757;28;20208;-84
2022/10/21 01:55:59;;;;;;;4.93;1.40;;;15.90;99.90;;;;;;5114954;28;20228;-83
2022/10/21 01:58:30;;;;;;;3.70;1.40;;;15.90;99.90;;;;;;5115322;28;20273;-84
2022/10/21 02:01:00;;;;;;;3.73;1.80;;;15.90;99.90;;;;;;5100250;28;20197;-83
2022/10/21 02:03:32;;;;;;;4.37;1.80;;;15.90;99.90;;;;;;5115149;28;20216;-83
2022/10/21 02:06:01;;;;;;;2.77;1.63;;;15.80;99.90;;;;;;5114212;28;20207;-84
2022/10/21 02:08:28;;;;;;;4.10;1.67;;;15.80;99.90;;;;;;5115034;28;20654;-83
2022/10/21 02:10:58;;;;;;;4.27;1.80;;;15.80;99.90;;;;;;5113973;28;20204;-84
2022/10/21 02:13:30;;;;;;;4.57;1.63;;;15.70;99.90;;;;;;5114210;28;20222;-84
2022/10/21 02:16:02;;;;;;;5.27;1.73;;;15.70;99.90;;;;;;5114609;28;20205;-84
2022/10/21 02:18:30;;;;;;;5.30;1.80;;;15.70;99.90;;;;;;5114769;28;20200;-84
2022/10/21 02:21:01;;;;;;;5.47;2.10;;;15.70;99.90;;;;;;5114615;28;20208;-84
2022/10/21 02:23:35;;;;;;;5.80;1.60;;;15.70;99.90;;;;;;5114783;28;20206;-84
2022/10/21 02:26:02;;;;;;;6.30;1.53;;;15.50;99.90;;;;;;5114490;28;20211;-83
2022/10/21 02:28:30;;;;;;;5.40;1.73;;;15.50;99.90;;;;;;5114683;28;20559;-83
2022/10/21 02:31:08;;;;;;;4.10;1.77;;;15.60;99.90;;;;;;5114380;27;20201;-83
2022/10/21 02:33:47;;;;;;;2.63;1.60;;;15.50;99.90;;;;;;5114304;28;20574;-84
2022/10/21 02:36:17;;;;;;;4.77;2.00;;;15.40;99.90;;;;;;5113976;28;20206;-83
2022/10/21 02:38:47;;;;;;;2.87;1.47;;;15.40;99.90;;;;;;5114668;28;20206;-83
2022/10/21 02:41:20;;;;;;;4.63;1.90;;;15.50;99.90;;;;;;5114441;28;20196;-83
2022/10/21 02:43:53;;;;;;;4.00;2.20;;;15.50;99.90;;;;;;5113112;28;20436;-84
2022/10/21 02:46:19;;;;;;;6.03;1.97;;;15.60;99.90;;;;;;5114092;28;20224;-84
2022/10/21 02:48:48;;;;;;;8.43;2.23;;;15.60;99.90;;;;;;5113632;28;20207;-83
2022/10/21 02:51:15;;;;;;;3.33;2.03;;;15.50;99.90;;;;;;5113741;28;20217;-85
2022/10/21 02:53:42;;;;;;;3.30;1.97;;;15.30;99.90;;;;;;5114391;28;20200;-83
2022/10/21 02:56:10;;;;;;;12.90;2.73;;;15.30;99.90;;;;;;5113983;28;20199;-83
2022/10/21 02:58:38;;;;;;;3.30;2.30;;;15.30;99.90;;;;;;5114109;28;20213;-85
2022/10/21 03:01:05;;;;;;;7.60;2.30;;;15.20;99.90;;;;;;5113903;27;20215;-84
2022/10/21 03:03:38;;;;;;;8.73;2.07;;;15.20;99.90;;;;;;5113520;28;20203;-83
2022/10/21 03:06:06;;;;;;;5.73;1.97;;;15.10;99.90;;;;;;5113700;28;20205;-84
2022/10/21 03:08:34;;;;;;;4.47;2.03;;;15.00;99.90;;;;;;5113601;28;20208;-84
2022/10/21 03:11:01;;;;;;;5.13;1.93;;;15.00;99.90;;;;;;5112455;28;20267;-83
2022/10/21 03:13:29;;;;;;;6.30;2.30;;;15.00;99.90;;;;;;5113430;28;20689;-83
2022/10/21 03:15:59;;;;;;;4.03;1.90;;;15.10;99.90;;;;;;5113287;28;20206;-84
2022/10/21 03:18:28;;;;;;;2.63;1.63;;;15.10;99.90;;;;;;5113345;28;20199;-84
2022/10/21 03:20:55;;;;;;;5.23;2.23;;;15.00;99.90;;;;;;5113391;28;20205;-84
2022/10/21 03:23:23;;;;;;;4.00;2.17;;;15.00;99.90;;;;;;5113914;28;20197;-84
2022/10/21 03:25:52;;;;;;;4.57;2.27;;;14.90;99.90;;;;;;5113737;28;20200;-83
2022/10/21 03:28:19;;;;;;;6.53;2.30;;;14.90;99.90;;;;;;5113224;28;20228;-83
2022/10/21 03:30:46;;;;;;;1.77;1.67;;;14.90;99.90;;;;;;5113800;28;20548;-84
2022/10/21 03:33:13;;;;;;;1.90;1.70;;;14.90;99.90;;;;;;5113419;28;20213;-84
2022/10/21 03:35:39;;;;;;;5.07;2.00;;;14.90;99.90;;;;;;5113439;28;20201;-84
2022/10/21 03:38:06;;;;;;;3.70;1.70;;;14.90;99.90;;;;;;5113278;28;20209;-83
2022/10/21 03:40:38;;;;;;;2.97;1.70;;;15.00;99.90;;;;;;5110225;28;20203;-81
2022/10/21 03:43:04;;;;;;;3.10;1.43;;;14.90;99.90;;;;;;5103510;28;20586;-82
2022/10/21 03:45:32;;;;;;;5.03;1.87;;;14.90;99.90;;;;;;5106230;28;20199;-82
2022/10/21 03:48:01;;;;;;;5.37;1.80;;;14.90;99.90;;;;;;5105377;28;20278;-82
2022/10/21 03:50:29;;;;;;;8.60;1.97;;;15.00;99.90;;;;;;5113470;28;20567;-84
2022/10/21 03:52:56;;;;;;;3.20;1.90;;;15.00;99.90;;;;;;5117120;28;20565;-83
2022/10/21 03:55:24;;;;;;;6.00;1.70;;;14.90;99.90;;;;;;5102724;28;20236;-83
2022/10/21 03:57:53;;;;;;;4.60;1.60;;;14.90;99.90;;;;;;5117701;28;20208;-84
2022/10/21 04:00:21;;;;;;;6.27;2.00;;;14.90;99.90;;;;;;5117357;28;20198;-84
2022/10/21 04:02:48;;;;;;;4.00;1.60;;;14.90;99.90;;;;;;5108930;28;20198;-83
2022/10/21 04:05:16;;;;;;;4.77;1.90;;;15.00;99.90;;;;;;5111012;28;20748;-84
2022/10/21 04:07:43;;;;;;;2.20;1.87;;;14.90;99.90;;;;;;5117140;28;20295;-83
2022/10/21 04:10:11;;;;;;;2.60;1.90;;;15.00;99.90;;;;;;5117179;28;20209;-83
2022/10/21 04:12:38;;;;;;;6.53;2.03;;;14.90;99.90;;;;;;5116589;28;20209;-84
2022/10/21 04:15:08;;;;;;;4.27;1.77;;;15.00;99.90;;;;;;5116954;28;20618;-82
2022/10/21 04:17:35;;;;;;;8.53;2.20;;;15.00;99.90;;;;;;5116235;27;20204;-81
2022/10/21 04:20:01;;;;;;;4.40;2.03;;;15.00;99.90;;;;;;5107306;27;20214;-81
2022/10/21 04:22:30;;;;;;;4.07;1.90;;;15.00;99.90;;;;;;5111433;28;20210;-83
2022/10/21 04:24:57;;;;;;;3.50;1.67;;;15.00;99.90;;;;;;5117121;28;20202;-83
2022/10/21 04:27:24;;;;;;;2.40;1.70;;;15.00;99.90;;;;;;5116596;28;20245;-83
2022/10/21 04:29:51;;;;;;;4.23;2.13;;;15.00;99.90;;;;;;5116566;28;20200;-83
2022/10/21 04:32:21;;;;;;;4.23;1.83;;;14.90;99.90;;;;;;5115304;28;20209;-83
2022/10/21 04:34:48;;;;;;;3.73;1.90;;;15.00;99.90;;;;;;5116666;27;20637;-83
2022/10/21 04:37:15;;;;;;;6.53;2.43;;;15.00;99.90;;;;;;5116305;28;20213;-83
2022/10/21 04:39:41;;;;;;;4.37;1.90;;;15.10;99.90;;;;;;5116401;28;20677;-84
2022/10/21 04:42:08;;;;;;;4.60;1.93;;;15.00;99.90;;;;;;5116601;28;20210;-83
2022/10/21 04:44:41;;;;;;;4.93;2.03;;;15.00;99.90;;;;;;5115977;28;20565;-82
2022/10/21 04:47:08;;;;;;;2.77;1.90;;;14.90;99.90;;;;;;5116411;28;20225;-83
2022/10/21 04:49:42;;;;;;;4.90;1.80;;;15.00;99.90;;;;;;5102112;28;20214;-83
2022/10/21 04:52:09;;;;;;;3.37;1.83;;;15.00;99.90;;;;;;5116335;27;20214;-83
2022/10/21 04:54:36;;;;;;;3.80;1.83;;;15.10;99.90;;;;;;5103195;28;20231;-83
2022/10/21 04:57:02;;;;;;;5.67;2.03;;;15.10;99.90;;;;;;5114747;28;20213;-83
2022/10/21 04:59:29;;;;;;;6.63;1.77;;;15.10;99.90;;;;;;5115862;28;20206;-83
2022/10/21 05:01:57;;;;;;;5.97;2.07;;;15.10;99.90;;;;;;5115720;28;20234;-86
2022/10/21 05:04:25;;;;;;;4.47;2.10;;;15.10;99.90;;;;;;5115932;28;20206;-86
2022/10/21 05:06:53;;;;;;;6.30;2.10;;;15.10;99.90;;;;;;5116065;28;21549;-87
2022/10/21 05:09:22;;;;;;;3.87;2.00;;;15.10;99.90;;;;;;5116860;28;20206;-87
2022/10/21 05:11:50;;;;;;;7.57;1.90;;;15.10;99.90;;;;;;5116725;28;20321;-85
2022/10/21 05:14:18;;;;;;;5.40;1.90;;;15.10;99.90;;;;;;5116292;28;20217;-86
2022/10/21 05:16:46;;;;;;;4.90;2.00;;;15.20;99.90;;;;;;5116776;28;20219;-87
2022/10/21 05:19:16;;;;;;;1.90;1.60;;;15.20;99.90;;;;;;5116685;28;20659;-86
2022/10/21 05:21:49;;;;;;;7.30;2.27;;;15.20;99.90;;;;;;5116359;28;20641;-84
2022/10/21 05:24:23;;;;;;;2.83;2.20;;;15.20;99.90;;;;;;5116314;28;20215;-84
2022/10/21 05:26:51;;;;;;;6.00;2.27;;;15.30;99.90;;;;;;5116275;28;20210;-86
2022/10/21 05:29:19;;;;;;;5.63;2.07;;;15.20;99.90;;;;;;5116317;28;20236;-86
2022/10/21 05:31:49;;;;;;;2.67;2.37;;;15.20;99.90;;;;;;5115603;28;20207;-87
2022/10/21 05:34:18;;;;;;;7.20;2.30;;;15.30;99.90;;;;;;5116014;28;20210;-87
2022/10/21 05:36:45;;;;;;;3.13;2.10;;;15.30;99.90;;;;;;5116147;28;20203;-86
2022/10/21 05:39:15;;;;;;;5.03;2.20;;;15.40;99.90;;;;;;5104664;28;20204;-86
2022/10/21 05:41:45;;;;;;;5.70;2.40;;;15.20;99.90;;;;;;5116522;28;20208;-86
2022/10/21 05:44:15;;;;;;;7.25;2.70;;;15.20;99.90;;;;;;5115683;28;20450;-86
2022/10/21 05:46:45;;;;;;;4.30;2.37;;;15.20;99.90;;;;;;5115043;28;20283;-86
2022/10/21 05:49:13;;;;;;;3.53;2.40;;;14.90;99.90;;;;;;5101334;28;20280;-86
2022/10/21 05:51:43;;;;;;;8.33;2.60;;;14.80;99.90;;;;;;5115914;28;20206;-86
2022/10/21 05:54:16;;;;;;;5.67;2.43;;;14.90;99.90;;;;;;5115888;28;20275;-86
2022/10/21 05:56:47;;;;;;;7.10;2.47;;;14.90;99.90;;;;;;5115905;28;20205;-87
2022/10/21 05:59:16;;;;;;;5.23;2.50;;;15.00;99.90;;;;;;5115952;28;20247;-88
2022/10/21 06:01:44;;;;;;;6.03;2.73;;;14.80;99.90;;;;;;5116584;28;20302;-87
2022/10/21 06:04:11;;;;;;;3.23;2.30;;;14.90;99.90;;;;;;5115527;28;20209;-86
2022/10/21 06:06:38;;;;;;;5.17;2.40;;;14.90;99.90;;;;;;5115705;28;20210;-87
2022/10/21 06:09:11;;;;;;;4.23;2.53;;;14.90;99.90;;;;;;5115741;28;20225;-84
2022/10/21 06:11:38;;;;;;;8.17;2.90;;;14.90;99.90;;;;;;5115408;27;20211;-87
2022/10/21 06:14:13;;;;;;;5.60;2.90;;;14.90;99.90;;;;;;5115049;28;20300;-86
2022/10/21 06:16:41;;;;;;;5.80;2.47;;;14.80;99.90;;;;;;5115714;28;20229;-86
2022/10/21 06:19:08;;;;;;;7.70;2.43;;;14.80;99.90;;;;;;5115921;28;20214;-86
2022/10/21 06:21:35;;;;;;;6.80;2.87;;;14.80;99.90;;;;;;5115212;28;20578;-86
2022/10/21 06:24:02;;;;;;;7.13;4.50;;;14.70;99.90;;;;;;5115245;27;20205;-86
2022/10/21 06:26:29;;;;;;;6.70;2.97;;;14.80;99.90;;;;;;5115654;28;20204;-86
2022/10/21 06:28:57;;;;;;;7.27;2.93;;;14.90;99.90;;;;;;5115268;27;20255;-86
2022/10/21 06:31:26;;;;;;;7.10;3.23;;;14.80;99.90;;;;;;5115281;28;20205;-86
2022/10/21 06:33:58;;;;;;;8.37;3.10;;;14.80;99.90;;;;;;5114788;28;20210;-86
2022/10/21 06:36:25;;;;;;;11.50;3.70;;;14.80;99.90;;;;;;5115519;28;20209;-87
2022/10/21 06:38:52;;;;;;;18.40;13.90;;;14.80;99.90;;;;;;5115194;28;20209;-87
2022/10/21 06:41:20;;;;;;;7.40;3.03;;;14.90;99.90;;;;;;5115217;28;20207;-88
2022/10/21 06:43:48;;;;;;;8.77;3.00;;;15.00;99.90;;;;;;5115861;28;20219;-87
2022/10/21 06:46:21;;;;;;;6.37;2.80;;;15.00;99.90;;;;;;5114996;28;20203;-86
2022/10/21 06:48:51;;;;;;;7.90;3.57;;;15.00;99.90;;;;;;5114828;28;20245;-87
2022/10/21 06:51:22;;;;;;;8.07;3.37;;;15.00;99.90;;;;;;5114773;28;20255;-87
2022/10/21 06:53:53;;;;;;;5.20;3.60;;;15.10;99.90;;;;;;5114806;28;20195;-86
2022/10/21 06:56:20;;;;;;;8.30;3.83;;;15.10;99.90;;;;;;5114678;28;20201;-86
2022/10/21 06:58:49;;;;;;;6.40;3.80;;;15.20;99.90;;;;;;5114538;27;20198;-86
2022/10/21 07:01:18;;;;;;;7.57;3.50;;;15.30;99.90;;;;;;5114719;28;20214;-87
2022/10/21 07:03:45;;;;;;;7.30;3.20;;;15.30;99.90;;;;;;5114340;28;20676;-87
2022/10/21 07:06:13;;;;;;;7.53;3.60;;;15.40;99.90;;;;;;5111029;28;20206;-87
2022/10/21 07:08:40;;;;;;;6.03;3.73;;;15.30;99.90;;;;;;5108411;28;20225;-87
2022/10/21 07:11:08;;;;;;;6.13;3.80;;;15.30;99.90;;;;;;5105672;28;20599;-86
2022/10/21 07:13:36;;;;;;;11.77;3.97;;;15.40;99.90;;;;;;5114681;28;20233;-86
2022/10/21 07:16:08;;;;;;;9.03;3.87;;;15.40;99.90;;;;;;5105906;28;20194;-89
2022/10/21 07:18:35;;;;;;;6.73;3.20;;;15.40;99.90;;;;;;5102674;28;20207;-88
2022/10/21 07:21:08;;;;;;;8.27;3.70;;;15.50;99.90;;;;;;5107232;28;20693;-88
2022/10/21 07:23:39;;;;;;;5.87;2.97;;;15.50;99.90;;;;;;5096599;28;20204;-86
2022/10/21 07:26:07;;;;;;;8.17;4.10;;;15.50;99.90;;;;;;5106588;28;20204;-88
2022/10/21 07:28:39;;;;;;;7.50;3.90;;;15.60;99.90;;;;;;5107056;28;20242;-86
2022/10/21 07:31:11;;;;;;;5.77;3.90;;;15.60;99.90;;;;;;5104057;28;20212;-85
2022/10/21 07:33:44;;;;;;;7.80;3.47;;;15.70;99.90;;;;;;5100284;28;20208;-86
2022/10/21 07:36:17;;;;;;;14.70;4.17;;;15.80;99.90;;;;;;5114626;28;20211;-88
2022/10/21 07:38:54;;;;;;;6.37;3.30;;;15.90;99.90;;;;;;5114938;28;20246;-88
2022/10/21 07:41:30;;;;;;;4.80;3.07;;;15.90;99.90;;;;;;5114172;28;20206;-88
2022/10/21 07:43:58;;;;;;;7.47;3.27;;;15.80;99.90;;;;;;5114690;28;20214;-87
2022/10/21 07:46:42;;;;;;;8.73;3.20;;;15.80;99.90;;;;;;5100112;28;20223;-86
2022/10/21 07:49:09;;;;;;;8.23;3.33;;;15.90;99.90;;;;;;5113831;28;20781;-88
2022/10/21 07:51:44;;;;;;;3.37;3.07;;;15.90;99.90;;;;;;5099590;28;20201;-88
2022/10/21 07:54:14;;;;;;;6.07;3.23;;;16.00;99.90;;;;;;5097413;28;20223;-90
2022/10/21 07:56:46;;;;;;;3.30;2.90;;;16.10;99.90;;;;;;5114038;28;20214;-87
2022/10/21 07:59:14;;;;;;;12.07;5.23;;;16.10;99.90;;;;;;5114124;28;20769;-84
2022/10/21 08:01:44;;;;;;;7.57;4.47;;;16.20;99.90;;;;;;5113474;28;20585;-84
2022/10/21 08:04:12;;;;;;;9.83;3.30;;;16.20;99.90;;;;;;5099581;28;20204;-83
2022/10/21 08:06:39;;;;;;;6.80;2.87;;;16.30;99.90;;;;;;5109805;28;20283;-84
2022/10/21 08:09:06;;;;;;;5.80;2.93;;;16.30;99.90;;;;;;5104428;28;20228;-84
2022/10/21 08:11:34;;;;;;;7.63;4.57;;;16.30;99.90;;;;;;5110024;28;20204;-84
2022/10/21 08:14:02;;;;;;;8.83;5.10;;;16.40;99.90;;;;;;5112592;28;20212;-85
2022/10/21 08:16:29;;;;;;;6.90;4.67;;;16.40;99.90;;;;;;5112429;28;20197;-84
2022/10/21 08:18:56;;;;;;;7.80;3.40;;;16.50;99.90;;;;;;5111872;28;20796;-85
2022/10/21 08:21:23;;;;;;;6.67;2.60;;;16.60;99.90;;;;;;5110691;28;20831;-85
2022/10/21 08:23:49;;;;;;;8.93;2.30;;;16.50;99.90;;;;;;5112594;28;20193;-85
2022/10/21 08:26:16;;;;;;;7.43;2.27;;;16.60;99.90;;;;;;5113552;28;20205;-84
2022/10/21 08:28:45;;;;;;;6.33;2.00;;;16.60;99.90;;;;;;5112605;28;20588;-85
2022/10/21 08:31:14;;;;;;;3.23;2.00;;;16.60;99.90;;;;;;5113012;28;20201;-84
2022/10/21 08:33:41;;;;;;;3.73;1.83;;;16.80;99.90;;;;;;5112742;28;20279;-82
2022/10/21 08:36:09;;;;;;;3.37;1.80;;;16.80;99.90;;;;;;5112543;27;20211;-90
2022/10/21 08:38:45;;;;;;;2.20;1.70;;;16.80;99.90;;;;;;5117540;28;20212;-89
2022/10/21 08:41:45;;;;;;;2.77;1.77;;;16.90;99.90;;;;;;5103704;28;20206;-88
2022/10/21 08:44:24;;;;;;;3.73;1.73;;;16.90;99.90;;;;;;5085943;28;20568;-88
2022/10/21 08:46:57;;;;;;;4.57;3.47;;;16.90;99.90;;;;;;5115278;28;20231;-89
2022/10/21 08:49:28;;;;;;;4.20;3.30;;;17.00;99.90;;;;;;5119171;28;20221;-89
2022/10/21 08:52:00;;;;;;;3.87;2.73;;;17.00;99.90;;;;;;5118598;28;20286;-88
2022/10/21 08:54:42;;;;;;;4.87;2.60;;;17.10;99.90;;;;;;5119477;27;20244;-89
2022/10/21 08:57:11;;;;;;;6.17;1.60;;;17.30;99.90;;;;;;5121453;28;20206;-90
2022/10/21 08:59:40;;;;;;;1.10;1.00;;;17.40;99.90;;;;;;5122349;28;20338;-89
2022/10/21 09:02:27;;;;;;;2.30;1.33;;;17.40;99.90;;;;;;5108139;28;20618;-89
2022/10/21 09:05:06;;;;;;;2.57;1.30;;;17.40;99.90;;;;;;5122600;28;20202;-89
2022/10/21 09:07:54;;;;;;;2.43;1.20;;;17.50;99.90;;;;;;5117977;28;20229;-87
2022/10/21 09:10:32;;;;;;;2.83;1.20;;;17.70;99.90;;;;;;5127324;28;20234;-86
2022/10/21 09:13:07;;;;;;;8.10;2.20;;;17.80;99.90;;;;;;5125023;28;20231;-86
2022/10/21 09:15:44;;;;;;;1.80;1.27;;;17.90;99.90;;;;;;5126198;28;20250;-87
2022/10/21 09:18:30;;;;;;;4.37;3.27;;;18.00;99.90;;;;;;5129516;28;20183;-88
2022/10/21 09:21:07;;;;;;;3.17;1.90;;;18.00;99.90;;;;;;5123386;28;20429;-87
2022/10/21 09:23:40;;;;;;;5.93;1.37;;;18.00;99.90;;;;;;5130292;28;20279;-87
2022/10/21 09:26:18;;;;;;;2.53;1.03;;;18.00;99.90;;;;;;5114695;28;20204;-90
2022/10/21 09:28:46;;;;;;;1.07;0.80;;;18.00;99.90;;;;;;5108154;28;20212;-87
2022/10/21 09:31:18;;;;;;;1.93;0.80;;;18.00;99.90;;;;;;5111211;28;20209;-88
2022/10/21 09:33:49;;;;;;;3.00;0.90;;;18.10;99.90;;;;;;5111934;28;20545;-88
2022/10/21 09:36:23;;;;;;;2.10;0.97;;;18.10;99.90;;;;;;5114626;28;20200;-91
2022/10/21 09:38:58;;;;;;;2.83;0.90;;;18.20;99.90;;;;;;5121996;28;20215;-89
2022/10/21 09:41:32;;;;;;;2.37;0.83;;;18.10;99.90;;;;;;5118966;28;20651;-90
2022/10/21 09:44:00;;;;;;;5.87;1.10;;;18.00;99.90;;;;;;5122414;28;20573;-92
2022/10/21 09:46:31;;;;;;;1.63;1.00;;;18.10;99.90;;;;;;5116574;28;20208;-90
2022/10/21 09:49:04;;;;;;;2.07;0.83;;;18.30;99.90;;;;;;5109843;28;20220;-92
2022/10/21 09:51:39;;;;;;;2.08;1.20;;;18.30;99.90;;;;;;5108538;28;20441;-90
2022/10/21 09:54:11;;;;;;;2.83;1.17;;;18.50;99.90;;;;;;5097154;28;20216;-92
2022/10/21 09:56:42;;;;;;;1.13;1.00;;;18.70;99.90;;;;;;5108845;28;20217;-93
2022/10/21 09:59:13;;;;;;;2.30;0.87;;;18.70;99.90;;;;;;5108931;28;20208;-87
2022/10/21 10:01:43;;;;;;;0.90;0.90;;;18.70;99.90;;;;;;5111446;28;20201;-84
2022/10/21 10:04:12;;;;;;;1.60;0.83;;;18.70;99.90;;;;;;5114531;28;20571;-84
2022/10/21 10:06:42;;;;;;;4.47;0.90;;;18.70;99.90;;;;;;5111110;28;20317;-84
2022/10/21 10:09:15;;;;;;;2.37;1.00;;;18.70;99.90;;;;;;5103628;28;20213;-85
2022/10/21 10:11:50;;;;;;;0.80;0.80;;;18.70;99.90;;;;;;5098955;28;20201;-85
2022/10/21 10:14:24;;;;;;;2.97;0.90;;;18.70;99.90;;;;;;5099067;28;20786;-86
2022/10/21 10:16:52;;;;;;;3.63;1.30;;;18.60;99.90;;;;;;5094318;28;20242;-86
2022/10/21 10:19:22;;;;;;;3.53;0.93;;;18.80;99.90;;;;;;5093929;28;20201;-85
2022/10/21 10:22:08;;;;;;;3.67;0.90;;;18.70;99.90;;;;;;5111802;28;20196;-85
2022/10/21 10:24:35;;;;;;;0.77;0.77;;;18.90;99.90;;;;;;5106575;28;20209;-84
2022/10/21 10:27:04;;;;;;;1.97;1.00;;;18.80;99.90;;;;;;5111909;28;20197;-86
2022/10/21 10:29:33;;;;;;;5.70;0.90;;;18.70;99.90;;;;;;5107437;28;20299;-85
2022/10/21 10:32:03;;;;;;;2.73;0.80;;;18.80;99.90;;;;;;5094377;28;20277;-86
2022/10/21 10:34:34;;;;;;;6.03;1.13;;;18.90;99.90;;;;;;5096646;28;20209;-86
2022/10/21 10:37:05;;;;;;;1.97;0.80;;;18.80;99.90;;;;;;5115148;28;20211;-83
2022/10/21 10:39:35;;;;;;;2.77;1.77;;;18.90;99.90;;;;;;5114829;28;20208;-80
2022/10/21 10:42:03;;;;;;;2.10;0.97;;;18.90;99.90;;;;;;5114949;28;20204;-87
2022/10/21 10:44:35;;;;;;;1.20;1.00;;;18.90;99.90;;;;;;5115534;28;20208;-80
2022/10/21 10:47:06;;;;;;;5.37;1.17;;;19.00;99.90;;;;;;5115432;28;20200;-85
2022/10/21 10:49:37;;;;;;;1.40;1.20;;;19.20;99.90;;;;;;5114541;28;20232;-87
2022/10/21 10:52:14;;;;;;;1.83;1.20;;;19.20;99.90;;;;;;5114815;28;20443;-86
2022/10/21 10:54:42;;;;;;;2.80;0.83;;;19.10;99.90;;;;;;5117190;28;20578;-84
2022/10/21 10:57:14;;;;;;;1.63;1.07;;;19.10;99.90;;;;;;5115607;27;20200;-89
2022/10/21 10:59:44;;;;;;;1.80;1.30;;;19.00;99.90;;;;;;5112619;28;20196;-89
2022/10/21 11:02:25;;;;;;;1.60;1.20;;;19.00;99.90;;;;;;5102060;28;20208;-87
2022/10/21 11:05:18;;;;;;;3.57;1.40;;;18.90;99.90;;;;;;5106540;28;20422;-87
2022/10/21 11:07:48;;;;;;;2.00;0.90;;;19.00;99.90;;;;;;5104103;28;20216;-86
2022/10/21 11:10:31;;;;;;;2.30;1.00;;;19.00;99.90;;;;;;5107175;28;20243;-86
2022/10/21 11:12:59;;;;;;;1.97;1.07;;;19.10;99.90;;;;;;5112427;28;20643;-87
2022/10/21 11:15:43;;;;;;;3.20;1.30;;;19.20;99.90;;;;;;5100271;28;20258;-87
2022/10/21 11:18:18;;;;;;;2.37;1.30;;;19.20;99.90;;;;;;5110666;28;20227;-87
2022/10/21 11:20:55;;;;;;;2.50;1.60;;;19.20;99.90;;;;;;5094168;28;20209;-87
2022/10/21 11:23:41;;;;;;;3.28;1.20;;;19.30;99.90;;;;;;5106216;28;20915;-80
2022/10/21 11:26:19;;;;;;;4.97;1.50;;;19.30;99.90;;;;;;5113754;28;20200;-84
2022/10/21 11:28:53;;;;;;;1.07;0.93;;;19.30;99.90;;;;;;5114053;28;20809;-86
2022/10/21 11:31:26;;;;;;;1.50;1.10;;;19.20;99.90;;;;;;5114130;28;20193;-87
2022/10/21 11:34:01;;;;;;;2.80;1.23;;;19.30;99.90;;;;;;5114974;28;20213;-85
2022/10/21 11:36:35;;;;;;;4.63;1.03;;;19.40;99.90;;;;;;5114346;28;20220;-88
2022/10/21 11:39:28;;;;;;;3.37;0.93;;;19.40;99.90;;;;;;5115255;28;20219;-89
2022/10/21 11:42:00;;;;;;;4.10;1.10;;;19.40;99.90;;;;;;5106257;28;20204;-87
2022/10/21 11:44:38;;;;;;;1.60;1.03;;;19.40;99.90;;;;;;5114466;28;20200;-86
2022/10/21 11:47:16;;;;;;;1.93;1.10;;;19.40;99.90;;;;;;5114037;28;20203;-87
2022/10/21 11:50:00;;;;;;;0.70;0.70;;;19.40;99.90;;;;;;5113835;28;20231;-87
2022/10/21 11:52:40;;;;;;;1.63;0.97;;;19.40;99.90;;;;;;5114641;28;20204;-88
2022/10/21 11:55:34;;;;;;;2.00;1.00;;;19.50;99.90;;;;;;5113596;28;20436;-87
2022/10/21 11:58:13;;;;;;;5.70;1.10;;;19.60;99.90;;;;;;5101160;28;20659;-90
2022/10/21 12:00:47;;;;;;;2.40;1.20;;;19.70;99.90;;;;;;5114350;28;20195;-82
2022/10/21 12:03:34;;;;;;;1.47;1.00;;;19.60;99.90;;;;;;5114104;28;20287;-88
2022/10/21 12:06:11;;;;;;;1.10;0.80;;;19.60;99.90;;;;;;5114613;28;20269;-90
2022/10/21 12:08:48;;;;;;;2.07;1.10;;;19.60;99.90;;;;;;5100879;28;20240;-81
2022/10/21 12:11:20;;;;;;;4.37;0.90;;;19.70;99.90;;;;;;5113579;28;20228;-86
2022/10/21 12:13:53;;;;;;;2.97;0.90;;;19.80;99.90;;;;;;5117741;28;20785;-88
2022/10/21 12:16:30;;;;;;;1.97;1.00;;;19.80;99.90;;;;;;5118986;27;20200;-83
2022/10/21 12:19:01;;;;;;;1.43;0.90;;;19.80;99.90;;;;;;5118020;28;20565;-87
2022/10/21 12:21:33;;;;;;;1.93;1.03;;;19.90;99.90;;;;;;5118076;28;20203;-87
2022/10/21 12:24:11;;;;;;;2.20;0.90;;;19.90;99.90;;;;;;5117692;27;20204;-88
2022/10/21 12:26:51;;;;;;;4.17;1.37;;;19.90;99.90;;;;;;5117287;28;20652;-87
2022/10/21 12:29:24;;;;;;;3.50;0.93;;;19.90;99.90;;;;;;5108984;28;20201;-85
2022/10/21 12:32:02;;;;;;;1.67;0.80;;;20.00;99.90;;;;;;5099822;28;20208;-85
2022/10/21 12:34:29;;;;;;;3.70;1.17;;;20.00;99.90;;;;;;5116933;28;20201;-87
2022/10/21 12:36:57;;;;;;;3.07;0.90;;;20.10;99.90;;;;;;5116418;28;20212;-85
2022/10/21 12:39:50;;;;;;;1.97;0.90;;;20.10;99.90;;;;;;5113458;28;20189;-87
2022/10/21 12:42:19;;;;;;;3.43;1.33;;;20.10;99.90;;;;;;5108869;27;20566;-87
2022/10/21 12:44:47;;;;;;;3.50;1.17;;;20.10;99.90;;;;;;5108610;28;20206;-87
2022/10/21 12:47:28;;;;;;;2.83;1.03;;;20.10;99.90;;;;;;5105887;27;20201;-83
2022/10/21 12:50:07;;;;;;;1.10;0.93;;;20.10;99.90;;;;;;5096280;28;20224;-88
2022/10/21 12:52:37;;;;;;;1.90;0.80;;;20.20;99.90;;;;;;5108031;28;20227;-86
2022/10/21 12:55:07;;;;;;;1.17;1.03;;;20.30;99.90;;;;;;5117164;28;20220;-85
2022/10/21 12:57:39;;;;;;;1.67;0.97;;;20.30;99.90;;;;;;5119334;28;20627;-86
2022/10/21 13:00:42;;;;;;;3.07;1.03;;;20.50;99.90;;;;;;5117656;28;20200;-87
2022/10/21 13:03:11;;;;;;;4.43;0.90;;;20.40;99.90;;;;;;5105882;28;20304;-85
2022/10/21 13:06:08;;;;;;;5.57;1.10;;;20.40;99.90;;;;;;5115902;28;20656;-87
2022/10/21 13:08:54;;;;;;;1.30;0.80;;;20.40;99.90;;;;;;5056165;28;20224;-86